sensor_id;sensor_type;location;lat;lon;timestamp;temperature;humidity
21807;DHT22;11065;50.786;7.840;2023-10-09T00:02:07;16.00;57.70
21807;DHT22;11065;50.786;7.840;2023-10-09T00:04:36;16.00;57.80
21807;DHT22;11065;50.786;7.840;2023-10-09T00:07:05;16.00;57.80
21807;DHT22;11065;50.786;7.840;2023-10-09T00:09:35;16.00;57.90
21807;DHT22;11065;50.786;7.840;2023-10-09T00:12:18;16.00;57.90
21807;DHT22;11065;50.786;7.840;2023-10-09T00:14:50;16.00;58.10
21807;DHT22;11065;50.786;7.840;2023-10-09T00:17:23;16.00;57.90
21807;DHT22;11065;50.786;7.840;2023-10-09T00:19:57;16.00;58.00
21807;DHT22;11065;50.786;7.840;2023-10-09T00:22:34;16.00;58.00
21807;DHT22;11065;50.786;7.840;2023-10-09T00:25:08;16.00;58.00
21807;DHT22;11065;50.786;7.840;2023-10-09T00:27:41;16.00;58.10
21807;DHT22;11065;50.786;7.840;2023-10-09T00:30:11;16.00;58.10
21807;DHT22;11065;50.786;7.840;2023-10-09T00:32:42;16.00;58.10
21807;DHT22;11065;50.786;7.840;2023-10-09T00:35:18;16.00;58.10
21807;DHT22;11065;50.786;7.840;2023-10-09T00:38:08;16.00;58.00
21807;DHT22;11065;50.786;7.840;2023-10-09T00:40:41;15.90;58.00
21807;DHT22;11065;50.786;7.840;2023-10-09T00:43:14;16.00;58.30
21807;DHT22;11065;50.786;7.840;2023-10-09T00:45:43;16.00;58.20
21807;DHT22;11065;50.786;7.840;2023-10-09T00:48:12;16.00;58.30
21807;DHT22;11065;50.786;7.840;2023-10-09T00:50:42;16.00;58.30
21807;DHT22;11065;50.786;7.840;2023-10-09T00:53:19;16.00;58.30
21807;DHT22;11065;50.786;7.840;2023-10-09T00:55:58;16.00;58.20
21807;DHT22;11065;50.786;7.840;2023-10-09T00:58:33;16.00;58.20
21807;DHT22;11065;50.786;7.840;2023-10-09T01:01:03;15.80;58.10
21807;DHT22;11065;50.786;7.840;2023-10-09T01:03:35;16.00;58.20
21807;DHT22;11065;50.786;7.840;2023-10-09T01:06:07;15.90;58.10
21807;DHT22;11065;50.786;7.840;2023-10-09T01:08:44;16.00;58.20
21807;DHT22;11065;50.786;7.840;2023-10-09T01:11:21;16.00;58.20
21807;DHT22;11065;50.786;7.840;2023-10-09T01:13:57;16.00;58.20
21807;DHT22;11065;50.786;7.840;2023-10-09T01:16:39;16.00;58.30
21807;DHT22;11065;50.786;7.840;2023-10-09T01:19:09;16.00;58.30
21807;DHT22;11065;50.786;7.840;2023-10-09T01:21:47;16.00;58.30
21807;DHT22;11065;50.786;7.840;2023-10-09T01:24:18;15.90;58.20
21807;DHT22;11065;50.786;7.840;2023-10-09T01:26:47;15.90;58.20
21807;DHT22;11065;50.786;7.840;2023-10-09T01:29:19;15.90;58.20
21807;DHT22;11065;50.786;7.840;2023-10-09T01:31:48;15.90;58.20
21807;DHT22;11065;50.786;7.840;2023-10-09T01:34:22;15.90;58.30
21807;DHT22;11065;50.786;7.840;2023-10-09T01:37:01;15.90;58.20
21807;DHT22;11065;50.786;7.840;2023-10-09T01:39:33;15.80;58.10
21807;DHT22;11065;50.786;7.840;2023-10-09T01:42:08;15.80;58.20
21807;DHT22;11065;50.786;7.840;2023-10-09T01:44:37;15.80;58.20
21807;DHT22;11065;50.786;7.840;2023-10-09T01:47:10;15.80;58.20
21807;DHT22;11065;50.786;7.840;2023-10-09T01:49:41;15.80;58.20
21807;DHT22;11065;50.786;7.840;2023-10-09T01:52:10;15.70;58.20
21807;DHT22;11065;50.786;7.840;2023-10-09T01:54:45;15.80;58.30
21807;DHT22;11065;50.786;7.840;2023-10-09T01:57:16;15.70;58.20
21807;DHT22;11065;50.786;7.840;2023-10-09T01:59:50;15.70;58.10
21807;DHT22;11065;50.786;7.840;2023-10-09T02:02:21;15.70;58.10
21807;DHT22;11065;50.786;7.840;2023-10-09T02:05:02;15.70;58.10
21807;DHT22;11065;50.786;7.840;2023-10-09T02:07:50;15.70;58.10
21807;DHT22;11065;50.786;7.840;2023-10-09T02:10:23;15.60;58.10
21807;DHT22;11065;50.786;7.840;2023-10-09T02:12:59;15.60;58.10
21807;DHT22;11065;50.786;7.840;2023-10-09T02:15:34;15.60;58.10
21807;DHT22;11065;50.786;7.840;2023-10-09T02:18:14;15.60;58.20
21807;DHT22;11065;50.786;7.840;2023-10-09T02:21:04;15.60;58.20
21807;DHT22;11065;50.786;7.840;2023-10-09T02:23:40;15.60;58.50
21807;DHT22;11065;50.786;7.840;2023-10-09T02:26:15;15.50;58.30
21807;DHT22;11065;50.786;7.840;2023-10-09T02:28:46;15.50;58.40
21807;DHT22;11065;50.786;7.840;2023-10-09T02:31:26;15.50;58.40
21807;DHT22;11065;50.786;7.840;2023-10-09T02:33:55;15.50;58.50
21807;DHT22;11065;50.786;7.840;2023-10-09T02:36:23;15.50;58.50
21807;DHT22;11065;50.786;7.840;2023-10-09T02:38:56;15.50;58.60
21807;DHT22;11065;50.786;7.840;2023-10-09T02:41:25;15.50;58.60
21807;DHT22;11065;50.786;7.840;2023-10-09T02:43:55;15.50;58.80
21807;DHT22;11065;50.786;7.840;2023-10-09T02:46:25;15.40;58.80
21807;DHT22;11065;50.786;7.840;2023-10-09T02:49:02;15.40;58.80
21807;DHT22;11065;50.786;7.840;2023-10-09T02:51:33;15.40;58.80
21807;DHT22;11065;50.786;7.840;2023-10-09T02:54:08;15.40;58.80
21807;DHT22;11065;50.786;7.840;2023-10-09T02:56:48;15.40;58.80
21807;DHT22;11065;50.786;7.840;2023-10-09T02:59:23;15.40;58.90
21807;DHT22;11065;50.786;7.840;2023-10-09T03:01:51;15.40;58.80
21807;DHT22;11065;50.786;7.840;2023-10-09T03:04:20;15.40;58.90
21807;DHT22;11065;50.786;7.840;2023-10-09T03:06:51;15.40;58.90
21807;DHT22;11065;50.786;7.840;2023-10-09T03:09:20;15.40;58.90
21807;DHT22;11065;50.786;7.840;2023-10-09T03:11:58;15.30;59.00
21807;DHT22;11065;50.786;7.840;2023-10-09T03:14:30;15.40;59.00
21807;DHT22;11065;50.786;7.840;2023-10-09T03:16:58;15.40;59.00
21807;DHT22;11065;50.786;7.840;2023-10-09T03:19:28;15.40;59.00
21807;DHT22;11065;50.786;7.840;2023-10-09T03:21:56;15.30;59.00
21807;DHT22;11065;50.786;7.840;2023-10-09T03:24:25;15.40;58.90
21807;DHT22;11065;50.786;7.840;2023-10-09T03:26:55;15.30;58.90
21807;DHT22;11065;50.786;7.840;2023-10-09T03:29:23;15.30;58.90
21807;DHT22;11065;50.786;7.840;2023-10-09T03:31:51;15.30;58.80
21807;DHT22;11065;50.786;7.840;2023-10-09T03:34:20;15.30;58.80
21807;DHT22;11065;50.786;7.840;2023-10-09T03:36:48;15.30;58.80
21807;DHT22;11065;50.786;7.840;2023-10-09T03:39:18;15.30;58.90
21807;DHT22;11065;50.786;7.840;2023-10-09T03:41:51;15.30;58.90
21807;DHT22;11065;50.786;7.840;2023-10-09T03:44:22;15.20;58.80
21807;DHT22;11065;50.786;7.840;2023-10-09T03:46:50;15.20;58.90
21807;DHT22;11065;50.786;7.840;2023-10-09T03:49:18;15.30;59.00
21807;DHT22;11065;50.786;7.840;2023-10-09T03:51:50;15.20;58.90
21807;DHT22;11065;50.786;7.840;2023-10-09T03:54:19;15.20;58.90
21807;DHT22;11065;50.786;7.840;2023-10-09T03:56:49;15.20;59.00
21807;DHT22;11065;50.786;7.840;2023-10-09T03:59:17;15.20;59.00
21807;DHT22;11065;50.786;7.840;2023-10-09T04:01:48;15.10;59.00
21807;DHT22;11065;50.786;7.840;2023-10-09T04:04:18;15.10;59.10
21807;DHT22;11065;50.786;7.840;2023-10-09T04:06:50;15.10;59.10
21807;DHT22;11065;50.786;7.840;2023-10-09T04:09:19;15.10;59.10
21807;DHT22;11065;50.786;7.840;2023-10-09T04:12:06;15.10;59.10
21807;DHT22;11065;50.786;7.840;2023-10-09T04:14:47;15.10;59.00
21807;DHT22;11065;50.786;7.840;2023-10-09T04:17:19;15.10;59.00
21807;DHT22;11065;50.786;7.840;2023-10-09T04:20:03;15.10;59.10
21807;DHT22;11065;50.786;7.840;2023-10-09T04:22:57;15.10;59.10
21807;DHT22;11065;50.786;7.840;2023-10-09T04:25:32;15.10;59.00
21807;DHT22;11065;50.786;7.840;2023-10-09T04:28:10;15.10;59.00
21807;DHT22;11065;50.786;7.840;2023-10-09T04:30:48;15.00;59.00
21807;DHT22;11065;50.786;7.840;2023-10-09T04:33:22;15.10;59.00
21807;DHT22;11065;50.786;7.840;2023-10-09T04:36:02;15.00;59.00
21807;DHT22;11065;50.786;7.840;2023-10-09T04:38:52;15.00;59.00
21807;DHT22;11065;50.786;7.840;2023-10-09T04:41:42;15.00;59.00
21807;DHT22;11065;50.786;7.840;2023-10-09T04:44:42;15.00;58.90
21807;DHT22;11065;50.786;7.840;2023-10-09T04:47:26;15.00;58.90
21807;DHT22;11065;50.786;7.840;2023-10-09T04:50:06;15.00;59.00
21807;DHT22;11065;50.786;7.840;2023-10-09T04:52:37;15.00;59.00
21807;DHT22;11065;50.786;7.840;2023-10-09T04:55:19;14.90;58.90
21807;DHT22;11065;50.786;7.840;2023-10-09T04:57:51;14.90;58.90
21807;DHT22;11065;50.786;7.840;2023-10-09T05:00:29;14.90;58.90
21807;DHT22;11065;50.786;7.840;2023-10-09T05:03:14;14.90;59.00
21807;DHT22;11065;50.786;7.840;2023-10-09T05:05:53;14.90;59.10
21807;DHT22;11065;50.786;7.840;2023-10-09T05:08:48;14.90;59.20
21807;DHT22;11065;50.786;7.840;2023-10-09T05:11:15;14.90;59.20
21807;DHT22;11065;50.786;7.840;2023-10-09T05:14:01;14.90;59.10
21807;DHT22;11065;50.786;7.840;2023-10-09T05:16:46;14.90;59.10
21807;DHT22;11065;50.786;7.840;2023-10-09T05:19:22;14.90;59.10
21807;DHT22;11065;50.786;7.840;2023-10-09T05:22:08;14.80;59.10
21807;DHT22;11065;50.786;7.840;2023-10-09T05:24:43;14.80;59.20
21807;DHT22;11065;50.786;7.840;2023-10-09T05:27:12;14.80;59.20
21807;DHT22;11065;50.786;7.840;2023-10-09T05:29:45;14.90;59.20
21807;DHT22;11065;50.786;7.840;2023-10-09T05:32:26;14.80;59.20
21807;DHT22;11065;50.786;7.840;2023-10-09T05:35:02;14.80;59.30
21807;DHT22;11065;50.786;7.840;2023-10-09T05:37:43;14.80;59.40
21807;DHT22;11065;50.786;7.840;2023-10-09T05:40:12;14.80;59.50
21807;DHT22;11065;50.786;7.840;2023-10-09T05:42:50;14.80;59.50
21807;DHT22;11065;50.786;7.840;2023-10-09T05:45:29;14.80;59.40
21807;DHT22;11065;50.786;7.840;2023-10-09T05:48:15;14.80;59.30
21807;DHT22;11065;50.786;7.840;2023-10-09T05:51:00;14.80;59.40
21807;DHT22;11065;50.786;7.840;2023-10-09T05:53:40;14.80;59.50
21807;DHT22;11065;50.786;7.840;2023-10-09T05:56:38;14.70;59.40
21807;DHT22;11065;50.786;7.840;2023-10-09T05:59:24;14.70;59.40
21807;DHT22;11065;50.786;7.840;2023-10-09T06:02:09;14.70;59.50
21807;DHT22;11065;50.786;7.840;2023-10-09T06:05:14;14.70;59.50
21807;DHT22;11065;50.786;7.840;2023-10-09T06:07:56;14.70;59.50
21807;DHT22;11065;50.786;7.840;2023-10-09T06:10:35;14.70;59.60
21807;DHT22;11065;50.786;7.840;2023-10-09T06:13:09;14.80;59.70
21807;DHT22;11065;50.786;7.840;2023-10-09T06:15:51;14.80;59.60
21807;DHT22;11065;50.786;7.840;2023-10-09T06:18:36;14.80;59.60
21807;DHT22;11065;50.786;7.840;2023-10-09T06:21:10;14.80;59.70
21807;DHT22;11065;50.786;7.840;2023-10-09T06:24:07;14.80;59.70
21807;DHT22;11065;50.786;7.840;2023-10-09T06:26:45;14.80;59.70
21807;DHT22;11065;50.786;7.840;2023-10-09T06:29:40;14.80;59.70
21807;DHT22;11065;50.786;7.840;2023-10-09T06:32:18;14.90;59.70
21807;DHT22;11065;50.786;7.840;2023-10-09T06:35:05;14.80;59.70
21807;DHT22;11065;50.786;7.840;2023-10-09T06:37:47;14.90;59.80
21807;DHT22;11065;50.786;7.840;2023-10-09T06:40:33;14.90;59.90
21807;DHT22;11065;50.786;7.840;2023-10-09T06:43:21;15.00;60.00
21807;DHT22;11065;50.786;7.840;2023-10-09T06:45:56;15.00;60.10
21807;DHT22;11065;50.786;7.840;2023-10-09T06:48:45;15.00;60.00
21807;DHT22;11065;50.786;7.840;2023-10-09T06:51:13;15.00;59.90
21807;DHT22;11065;50.786;7.840;2023-10-09T06:54:03;15.10;60.00
21807;DHT22;11065;50.786;7.840;2023-10-09T06:56:33;15.20;60.70
21807;DHT22;11065;50.786;7.840;2023-10-09T06:59:22;15.20;60.20
21807;DHT22;11065;50.786;7.840;2023-10-09T07:01:52;15.20;60.20
21807;DHT22;11065;50.786;7.840;2023-10-09T07:04:33;15.30;60.10
21807;DHT22;11065;50.786;7.840;2023-10-09T07:07:14;15.30;59.90
21807;DHT22;11065;50.786;7.840;2023-10-09T07:09:43;15.40;59.70
21807;DHT22;11065;50.786;7.840;2023-10-09T07:12:32;15.30;59.60
21807;DHT22;11065;50.786;7.840;2023-10-09T07:15:02;15.40;59.60
21807;DHT22;11065;50.786;7.840;2023-10-09T07:17:50;15.40;59.60
21807;DHT22;11065;50.786;7.840;2023-10-09T07:20:19;15.40;59.70
21807;DHT22;11065;50.786;7.840;2023-10-09T07:23:01;15.40;59.70
21807;DHT22;11065;50.786;7.840;2023-10-09T07:25:41;15.50;59.70
21807;DHT22;11065;50.786;7.840;2023-10-09T07:28:22;15.60;59.70
21807;DHT22;11065;50.786;7.840;2023-10-09T07:31:18;15.50;59.70
21807;DHT22;11065;50.786;7.840;2023-10-09T07:33:54;15.60;60.10
21807;DHT22;11065;50.786;7.840;2023-10-09T07:36:25;15.60;60.20
21807;DHT22;11065;50.786;7.840;2023-10-09T07:39:05;15.70;60.50
21807;DHT22;11065;50.786;7.840;2023-10-09T07:41:43;15.80;60.70
21807;DHT22;11065;50.786;7.840;2023-10-09T07:44:28;15.90;60.60
21807;DHT22;11065;50.786;7.840;2023-10-09T07:47:05;16.00;60.60
21807;DHT22;11065;50.786;7.840;2023-10-09T07:49:46;16.00;60.30
21807;DHT22;11065;50.786;7.840;2023-10-09T07:52:21;16.10;60.00
21807;DHT22;11065;50.786;7.840;2023-10-09T07:54:54;16.10;59.80
21807;DHT22;11065;50.786;7.840;2023-10-09T07:57:28;16.20;59.80
21807;DHT22;11065;50.786;7.840;2023-10-09T08:00:06;16.20;59.80
21807;DHT22;11065;50.786;7.840;2023-10-09T08:03:03;16.30;60.00
21807;DHT22;11065;50.786;7.840;2023-10-09T08:05:51;16.40;60.30
21807;DHT22;11065;50.786;7.840;2023-10-09T08:08:20;16.50;60.30
21807;DHT22;11065;50.786;7.840;2023-10-09T08:11:09;16.50;60.20
21807;DHT22;11065;50.786;7.840;2023-10-09T08:13:54;16.70;60.10
21807;DHT22;11065;50.786;7.840;2023-10-09T08:16:27;16.70;60.40
21807;DHT22;11065;50.786;7.840;2023-10-09T08:19:05;16.90;61.00
21807;DHT22;11065;50.786;7.840;2023-10-09T08:21:56;17.10;61.30
21807;DHT22;11065;50.786;7.840;2023-10-09T08:25:04;17.30;61.80
21807;DHT22;11065;50.786;7.840;2023-10-09T08:27:33;17.60;63.20
21807;DHT22;11065;50.786;7.840;2023-10-09T08:30:21;17.90;63.80
21807;DHT22;11065;50.786;7.840;2023-10-09T08:33:07;18.30;62.90
21807;DHT22;11065;50.786;7.840;2023-10-09T08:35:57;18.70;62.70
21807;DHT22;11065;50.786;7.840;2023-10-09T08:38:32;19.10;63.70
21807;DHT22;11065;50.786;7.840;2023-10-09T08:41:07;19.60;64.20
21807;DHT22;11065;50.786;7.840;2023-10-09T08:43:50;20.10;62.60
21807;DHT22;11065;50.786;7.840;2023-10-09T08:46:19;20.60;60.20
21807;DHT22;11065;50.786;7.840;2023-10-09T08:48:48;20.90;59.50
21807;DHT22;11065;50.786;7.840;2023-10-09T08:51:19;21.20;59.00
21807;DHT22;11065;50.786;7.840;2023-10-09T08:53:47;21.40;58.00
21807;DHT22;11065;50.786;7.840;2023-10-09T08:56:17;21.40;57.30
21807;DHT22;11065;50.786;7.840;2023-10-09T08:58:53;21.40;56.40
21807;DHT22;11065;50.786;7.840;2023-10-09T09:01:23;21.40;55.80
21807;DHT22;11065;50.786;7.840;2023-10-09T09:03:53;21.30;55.70
21807;DHT22;11065;50.786;7.840;2023-10-09T09:06:24;21.10;56.00
21807;DHT22;11065;50.786;7.840;2023-10-09T09:08:52;21.00;55.50
21807;DHT22;11065;50.786;7.840;2023-10-09T09:11:26;20.90;56.10
21807;DHT22;11065;50.786;7.840;2023-10-09T09:14:01;20.80;55.70
21807;DHT22;11065;50.786;7.840;2023-10-09T09:16:32;20.70;55.70
21807;DHT22;11065;50.786;7.840;2023-10-09T09:19:03;20.70;55.90
21807;DHT22;11065;50.786;7.840;2023-10-09T09:21:34;20.60;56.10
21807;DHT22;11065;50.786;7.840;2023-10-09T09:24:08;20.60;56.80
21807;DHT22;11065;50.786;7.840;2023-10-09T09:26:54;20.60;57.00
21807;DHT22;11065;50.786;7.840;2023-10-09T09:29:38;20.80;58.10
21807;DHT22;11065;50.786;7.840;2023-10-09T09:32:09;21.10;58.70
21807;DHT22;11065;50.786;7.840;2023-10-09T09:34:44;21.50;59.90
21807;DHT22;11065;50.786;7.840;2023-10-09T09:37:24;21.90;59.40
21807;DHT22;11065;50.786;7.840;2023-10-09T09:39:57;22.30;57.70
21807;DHT22;11065;50.786;7.840;2023-10-09T09:42:28;22.60;57.50
21807;DHT22;11065;50.786;7.840;2023-10-09T09:45:00;22.80;56.90
21807;DHT22;11065;50.786;7.840;2023-10-09T09:47:29;22.90;56.70
21807;DHT22;11065;50.786;7.840;2023-10-09T09:49:57;23.10;55.50
21807;DHT22;11065;50.786;7.840;2023-10-09T09:52:39;23.20;54.40
21807;DHT22;11065;50.786;7.840;2023-10-09T09:55:09;23.30;53.90
21807;DHT22;11065;50.786;7.840;2023-10-09T09:57:41;23.50;54.10
21807;DHT22;11065;50.786;7.840;2023-10-09T10:00:13;23.70;55.00
21807;DHT22;11065;50.786;7.840;2023-10-09T10:02:58;23.90;54.40
21807;DHT22;11065;50.786;7.840;2023-10-09T10:05:29;24.10;54.60
21807;DHT22;11065;50.786;7.840;2023-10-09T10:08:00;24.30;53.30
21807;DHT22;11065;50.786;7.840;2023-10-09T10:10:36;24.40;53.00
21807;DHT22;11065;50.786;7.840;2023-10-09T10:13:14;24.50;52.80
21807;DHT22;11065;50.786;7.840;2023-10-09T10:16:04;24.70;53.00
21807;DHT22;11065;50.786;7.840;2023-10-09T10:18:54;24.80;52.20
21807;DHT22;11065;50.786;7.840;2023-10-09T10:21:27;24.90;52.40
21807;DHT22;11065;50.786;7.840;2023-10-09T10:24:41;25.00;52.80
21807;DHT22;11065;50.786;7.840;2023-10-09T10:27:22;25.20;51.30
21807;DHT22;11065;50.786;7.840;2023-10-09T10:30:28;25.40;52.70
21807;DHT22;11065;50.786;7.840;2023-10-09T10:33:10;25.60;51.40
21807;DHT22;11065;50.786;7.840;2023-10-09T10:35:39;25.80;52.60
21807;DHT22;11065;50.786;7.840;2023-10-09T10:38:28;26.10;53.60
21807;DHT22;11065;50.786;7.840;2023-10-09T10:41:09;26.70;53.00
21807;DHT22;11065;50.786;7.840;2023-10-09T10:43:40;27.40;53.40
21807;DHT22;11065;50.786;7.840;2023-10-09T10:46:41;28.00;54.30
21807;DHT22;11065;50.786;7.840;2023-10-09T10:49:12;28.70;53.00
21807;DHT22;11065;50.786;7.840;2023-10-09T10:51:48;29.30;52.90
21807;DHT22;11065;50.786;7.840;2023-10-09T10:54:27;29.80;51.70
21807;DHT22;11065;50.786;7.840;2023-10-09T10:57:16;30.00;50.00
21807;DHT22;11065;50.786;7.840;2023-10-09T11:00:01;30.20;48.80
21807;DHT22;11065;50.786;7.840;2023-10-09T11:03:01;30.10;47.50
21807;DHT22;11065;50.786;7.840;2023-10-09T11:05:42;29.90;47.00
21807;DHT22;11065;50.786;7.840;2023-10-09T11:08:18;29.50;44.80
21807;DHT22;11065;50.786;7.840;2023-10-09T11:10:50;29.20;45.20
21807;DHT22;11065;50.786;7.840;2023-10-09T11:13:26;28.80;44.90
21807;DHT22;11065;50.786;7.840;2023-10-09T11:15:57;28.50;44.80
21807;DHT22;11065;50.786;7.840;2023-10-09T11:18:41;28.20;45.40
21807;DHT22;11065;50.786;7.840;2023-10-09T11:21:14;27.80;45.40
21807;DHT22;11065;50.786;7.840;2023-10-09T11:24:08;27.60;45.10
21807;DHT22;11065;50.786;7.840;2023-10-09T11:26:57;27.40;45.60
21807;DHT22;11065;50.786;7.840;2023-10-09T11:29:34;27.10;45.70
21807;DHT22;11065;50.786;7.840;2023-10-09T11:32:17;26.90;45.50
21807;DHT22;11065;50.786;7.840;2023-10-09T11:34:46;26.70;45.70
21807;DHT22;11065;50.786;7.840;2023-10-09T11:37:20;26.70;45.70
21807;DHT22;11065;50.786;7.840;2023-10-09T11:40:06;26.50;45.70
21807;DHT22;11065;50.786;7.840;2023-10-09T11:42:50;26.40;45.70
21807;DHT22;11065;50.786;7.840;2023-10-09T11:45:27;26.30;45.70
21807;DHT22;11065;50.786;7.840;2023-10-09T11:47:57;26.20;45.90
21807;DHT22;11065;50.786;7.840;2023-10-09T11:50:41;26.10;46.00
21807;DHT22;11065;50.786;7.840;2023-10-09T11:53:18;26.10;45.50
21807;DHT22;11065;50.786;7.840;2023-10-09T11:56:00;26.00;46.10
21807;DHT22;11065;50.786;7.840;2023-10-09T11:58:29;26.00;46.10
21807;DHT22;11065;50.786;7.840;2023-10-09T12:00:58;26.00;46.20
21807;DHT22;11065;50.786;7.840;2023-10-09T12:03:31;26.00;46.20
21807;DHT22;11065;50.786;7.840;2023-10-09T12:06:02;26.00;46.30
21807;DHT22;11065;50.786;7.840;2023-10-09T12:08:32;26.00;46.10
21807;DHT22;11065;50.786;7.840;2023-10-09T12:11:02;25.90;46.20
21807;DHT22;11065;50.786;7.840;2023-10-09T12:13:35;26.00;46.30
21807;DHT22;11065;50.786;7.840;2023-10-09T12:16:06;26.00;46.40
21807;DHT22;11065;50.786;7.840;2023-10-09T12:18:37;26.00;46.30
21807;DHT22;11065;50.786;7.840;2023-10-09T12:21:06;26.10;46.20
21807;DHT22;11065;50.786;7.840;2023-10-09T12:23:34;26.10;46.20
21807;DHT22;11065;50.786;7.840;2023-10-09T12:26:03;26.20;46.10
21807;DHT22;11065;50.786;7.840;2023-10-09T12:28:31;26.20;45.90
21807;DHT22;11065;50.786;7.840;2023-10-09T12:31:01;26.20;45.80
21807;DHT22;11065;50.786;7.840;2023-10-09T12:33:30;26.30;45.80
21807;DHT22;11065;50.786;7.840;2023-10-09T12:35:58;26.30;45.50
21807;DHT22;11065;50.786;7.840;2023-10-09T12:38:28;26.30;45.60
21807;DHT22;11065;50.786;7.840;2023-10-09T12:41:03;26.30;45.30
21807;DHT22;11065;50.786;7.840;2023-10-09T12:43:35;26.30;45.50
21807;DHT22;11065;50.786;7.840;2023-10-09T12:46:06;26.20;44.90
21807;DHT22;11065;50.786;7.840;2023-10-09T12:48:35;26.10;44.80
21807;DHT22;11065;50.786;7.840;2023-10-09T12:51:04;26.10;44.70
21807;DHT22;11065;50.786;7.840;2023-10-09T12:53:33;26.00;44.70
21807;DHT22;11065;50.786;7.840;2023-10-09T12:56:06;26.00;44.50
21807;DHT22;11065;50.786;7.840;2023-10-09T12:58:35;25.90;44.80
21807;DHT22;11065;50.786;7.840;2023-10-09T13:01:07;25.90;44.70
21807;DHT22;11065;50.786;7.840;2023-10-09T13:03:39;25.80;44.70
21807;DHT22;11065;50.786;7.840;2023-10-09T13:06:07;25.80;44.50
21807;DHT22;11065;50.786;7.840;2023-10-09T13:08:37;25.80;44.70
21807;DHT22;11065;50.786;7.840;2023-10-09T13:11:09;25.80;44.70
21807;DHT22;11065;50.786;7.840;2023-10-09T13:13:40;25.80;44.60
21807;DHT22;11065;50.786;7.840;2023-10-09T13:16:10;25.80;44.60
21807;DHT22;11065;50.786;7.840;2023-10-09T13:18:51;25.70;44.60
21807;DHT22;11065;50.786;7.840;2023-10-09T13:21:20;25.70;44.70
21807;DHT22;11065;50.786;7.840;2023-10-09T13:23:50;25.60;44.50
21807;DHT22;11065;50.786;7.840;2023-10-09T13:26:22;25.60;44.60
21807;DHT22;11065;50.786;7.840;2023-10-09T13:28:59;25.60;44.60
21807;DHT22;11065;50.786;7.840;2023-10-09T13:31:29;25.50;44.60
21807;DHT22;11065;50.786;7.840;2023-10-09T13:34:00;25.50;44.70
21807;DHT22;11065;50.786;7.840;2023-10-09T13:36:29;25.40;44.60
21807;DHT22;11065;50.786;7.840;2023-10-09T13:39:00;25.30;44.60
21807;DHT22;11065;50.786;7.840;2023-10-09T13:41:47;25.30;44.60
21807;DHT22;11065;50.786;7.840;2023-10-09T13:44:15;25.20;44.60
21807;DHT22;11065;50.786;7.840;2023-10-09T13:46:43;25.10;44.60
21807;DHT22;11065;50.786;7.840;2023-10-09T13:49:13;25.10;44.70
21807;DHT22;11065;50.786;7.840;2023-10-09T13:51:41;25.00;44.70
21807;DHT22;11065;50.786;7.840;2023-10-09T13:54:10;25.00;44.80
21807;DHT22;11065;50.786;7.840;2023-10-09T13:56:45;24.90;45.00
21807;DHT22;11065;50.786;7.840;2023-10-09T13:59:12;24.90;45.00
21807;DHT22;11065;50.786;7.840;2023-10-09T14:01:41;24.90;45.10
21807;DHT22;11065;50.786;7.840;2023-10-09T14:04:15;24.80;45.10
21807;DHT22;11065;50.786;7.840;2023-10-09T14:06:45;24.80;45.20
21807;DHT22;11065;50.786;7.840;2023-10-09T14:09:13;24.80;45.10
21807;DHT22;11065;50.786;7.840;2023-10-09T14:11:58;24.80;45.30
21807;DHT22;11065;50.786;7.840;2023-10-09T14:14:35;24.80;45.50
21807;DHT22;11065;50.786;7.840;2023-10-09T14:17:05;24.80;45.50
21807;DHT22;11065;50.786;7.840;2023-10-09T14:19:40;24.90;45.50
21807;DHT22;11065;50.786;7.840;2023-10-09T14:22:13;24.90;45.50
21807;DHT22;11065;50.786;7.840;2023-10-09T14:24:42;24.90;45.50
21807;DHT22;11065;50.786;7.840;2023-10-09T14:27:11;25.00;45.60
21807;DHT22;11065;50.786;7.840;2023-10-09T14:29:44;25.00;45.60
21807;DHT22;11065;50.786;7.840;2023-10-09T14:32:12;25.00;45.60
21807;DHT22;11065;50.786;7.840;2023-10-09T14:34:42;25.00;45.60
21807;DHT22;11065;50.786;7.840;2023-10-09T14:37:16;25.00;45.70
21807;DHT22;11065;50.786;7.840;2023-10-09T14:39:45;25.10;45.60
21807;DHT22;11065;50.786;7.840;2023-10-09T14:42:15;25.10;45.60
21807;DHT22;11065;50.786;7.840;2023-10-09T14:44:44;25.10;45.50
21807;DHT22;11065;50.786;7.840;2023-10-09T14:47:12;25.10;45.50
21807;DHT22;11065;50.786;7.840;2023-10-09T14:49:42;25.10;45.60
21807;DHT22;11065;50.786;7.840;2023-10-09T14:52:14;25.20;45.60
21807;DHT22;11065;50.786;7.840;2023-10-09T14:54:43;25.20;45.60
21807;DHT22;11065;50.786;7.840;2023-10-09T14:57:12;25.30;45.50
21807;DHT22;11065;50.786;7.840;2023-10-09T14:59:40;25.30;45.40
21807;DHT22;11065;50.786;7.840;2023-10-09T15:02:10;25.30;45.30
21807;DHT22;11065;50.786;7.840;2023-10-09T15:04:39;25.30;45.10
21807;DHT22;11065;50.786;7.840;2023-10-09T15:07:09;25.30;45.00
21807;DHT22;11065;50.786;7.840;2023-10-09T15:09:53;25.20;44.90
21807;DHT22;11065;50.786;7.840;2023-10-09T15:12:21;25.20;44.80
21807;DHT22;11065;50.786;7.840;2023-10-09T15:14:49;25.20;44.70
21807;DHT22;11065;50.786;7.840;2023-10-09T15:17:20;25.10;44.50
21807;DHT22;11065;50.786;7.840;2023-10-09T15:19:48;24.90;44.50
21807;DHT22;11065;50.786;7.840;2023-10-09T15:22:23;24.80;44.50
21807;DHT22;11065;50.786;7.840;2023-10-09T15:24:54;24.80;44.60
21807;DHT22;11065;50.786;7.840;2023-10-09T15:27:22;24.60;44.60
21807;DHT22;11065;50.786;7.840;2023-10-09T15:29:51;24.60;44.70
21807;DHT22;11065;50.786;7.840;2023-10-09T15:32:19;24.50;44.80
21807;DHT22;11065;50.786;7.840;2023-10-09T15:34:54;24.40;45.00
21807;DHT22;11065;50.786;7.840;2023-10-09T15:37:23;24.30;45.10
21807;DHT22;11065;50.786;7.840;2023-10-09T15:39:53;24.20;45.10
21807;DHT22;11065;50.786;7.840;2023-10-09T15:42:21;24.20;45.20
21807;DHT22;11065;50.786;7.840;2023-10-09T15:44:52;24.20;45.30
21807;DHT22;11065;50.786;7.840;2023-10-09T15:47:21;24.10;45.30
21807;DHT22;11065;50.786;7.840;2023-10-09T15:49:49;24.10;45.50
21807;DHT22;11065;50.786;7.840;2023-10-09T15:52:22;24.00;45.50
21807;DHT22;11065;50.786;7.840;2023-10-09T15:54:55;24.00;45.60
21807;DHT22;11065;50.786;7.840;2023-10-09T15:57:23;24.00;45.70
21807;DHT22;11065;50.786;7.840;2023-10-09T15:59:51;24.00;45.70
21807;DHT22;11065;50.786;7.840;2023-10-09T16:02:18;23.90;45.70
21807;DHT22;11065;50.786;7.840;2023-10-09T16:04:47;23.90;45.70
21807;DHT22;11065;50.786;7.840;2023-10-09T16:07:14;23.90;45.70
21807;DHT22;11065;50.786;7.840;2023-10-09T16:09:44;23.80;45.80
21807;DHT22;11065;50.786;7.840;2023-10-09T16:12:13;23.80;45.80
21807;DHT22;11065;50.786;7.840;2023-10-09T16:14:41;23.70;46.30
21807;DHT22;11065;50.786;7.840;2023-10-09T16:17:09;23.70;45.90
21807;DHT22;11065;50.786;7.840;2023-10-09T16:19:39;23.60;45.90
21807;DHT22;11065;50.786;7.840;2023-10-09T16:22:07;23.50;45.90